Time,TemperatureF,DewpointF,PressureIn,WindDirection,WindDirectionDegrees,WindSpeedMPH,WindSpeedGustMPH,Humidity,HourlyPrecipIn,Conditions,Clouds,dailyrainin,SoftwareType,DateUTC
2013-03-25 11:33:00,34.0,21.0,30.25,NNW,328,11.0,16.0,59,-99.99,,,-99.99,,2013-03-25 16:33:00,
2013-03-25 11:43:00,34.0,21.0,30.25,NNW,328,11.0,16.0,59,-99.99,,,-99.99,,2013-03-25 16:43:00,
2013-03-25 11:53:00,34.0,21.0,30.26,NNW,330,9.0,15.0,59,-99.99,,,-99.99,,2013-03-25 16:53:00,
2013-03-25 12:02:00,36.0,22.0,30.26,NW,326,11.0,17.0,57,-99.99,,,-99.99,,2013-03-25 17:02:00,
2013-03-25 12:12:00,36.0,22.0,30.26,NW,326,11.0,17.0,57,-99.99,,,-99.99,,2013-03-25 17:12:00,
2013-03-25 12:23:00,37.0,22.0,30.25,North,8,7.0,13.0,55,-99.99,,,-99.99,,2013-03-25 17:23:00,
2013-03-25 12:33:00,38.0,22.0,30.25,NNW,341,10.0,20.0,53,-99.99,,,-99.99,,2013-03-25 17:33:00,
2013-03-25 12:42:00,38.0,22.0,30.25,NNW,341,10.0,20.0,53,-99.99,,,-99.99,,2013-03-25 17:42:00,
2013-03-25 12:52:00,38.0,22.0,30.25,North,4,5.0,21.0,53,-99.99,,,-99.99,,2013-03-25 17:52:00,
2013-03-25 13:03:00,38.0,22.0,30.25,North,7,6.0,17.0,52,-99.99,,,-99.99,,2013-03-25 18:03:00,
2013-03-25 13:12:00,38.0,22.0,30.25,North,7,6.0,17.0,52,-99.99,,,-99.99,,2013-03-25 18:12:00,
2013-03-25 13:22:00,38.0,22.0,30.26,North,5,10.0,20.0,52,-99.99,,,-99.99,,2013-03-25 18:22:00,
2013-03-25 13:33:00,37.0,21.0,30.26,NNE,26,7.0,23.0,53,-99.99,,,-99.99,,2013-03-25 18:33:00,
2013-03-25 13:42:00,37.0,21.0,30.26,NNE,26,7.0,23.0,53,-99.99,,,-99.99,,2013-03-25 18:42:00,
2013-03-25 13:52:00,38.0,22.0,30.26,North,359,12.0,18.0,52,-99.99,,,-99.99,,2013-03-25 18:52:00,
2013-03-25 14:03:00,38.0,22.0,30.26,NNE,12,9.0,24.0,52,-99.99,,,-99.99,,2013-03-25 19:03:00,
2013-03-25 14:12:00,38.0,22.0,30.26,NNE,12,9.0,24.0,52,-99.99,,,-99.99,,2013-03-25 19:12:00,
2013-03-25 14:22:00,39.0,22.0,30.26,North,357,11.0,23.0,51,-99.99,,,-99.99,,2013-03-25 19:22:00,
2013-03-25 14:33:00,39.0,22.0,30.26,North,1,11.0,18.0,51,-99.99,,,-99.99,,2013-03-25 19:33:00,
2013-03-25 14:42:00,39.0,22.0,30.26,North,1,11.0,18.0,51,-99.99,,,-99.99,,2013-03-25 19:42:00,
2013-03-25 14:52:00,38.0,22.0,30.26,North,353,7.0,22.0,51,-99.99,,,-99.99,,2013-03-25 19:52:00,
2013-03-25 15:02:00,39.0,22.0,30.26,NNW,339,6.0,18.0,50,-99.99,,,-99.99,,2013-03-25 20:02:00,
2013-03-25 15:12:00,39.0,22.0,30.26,NNW,339,6.0,18.0,50,-99.99,,,-99.99,,2013-03-25 20:12:00,
2013-03-25 15:22:00,38.0,21.0,30.26,North,354,10.0,16.0,50,-99.99,,,-99.99,,2013-03-25 20:22:00,
2013-03-25 15:32:00,38.0,22.0,30.26,NNW,342,9.0,19.0,51,-99.99,,,-99.99,,2013-03-25 20:32:00,
2013-03-25 15:42:00,38.0,22.0,30.26,NNW,342,9.0,19.0,51,-99.99,,,-99.99,,2013-03-25 20:42:00,
2013-03-25 15:52:00,38.0,22.0,30.26,North,358,8.0,16.0,51,-99.99,,,-99.99,,2013-03-25 20:52:00,
2013-03-25 16:02:00,38.0,22.0,30.26,NNW,333,9.0,15.0,52,-99.99,,,-99.99,,2013-03-25 21:02:00,
2013-03-25 16:12:00,38.0,22.0,30.26,NNW,333,9.0,15.0,52,-99.99,,,-99.99,,2013-03-25 21:12:00,
2013-03-25 16:22:00,38.0,22.0,30.26,NNW,348,8.0,15.0,52,-99.99,,,-99.99,,2013-03-25 21:22:00,
2013-03-25 16:33:00,37.0,21.0,30.27,NNW,336,8.0,17.0,53,-99.99,,,-99.99,,2013-03-25 21:33:00,
2013-03-25 16:42:00,37.0,21.0,30.27,NNW,336,8.0,17.0,53,-99.99,,,-99.99,,2013-03-25 21:42:00,
2013-03-25 16:52:00,38.0,22.0,30.27,NNW,331,7.0,18.0,53,-99.99,,,-99.99,,2013-03-25 21:52:00,
2013-03-25 17:03:00,37.0,21.0,30.28,North,351,11.0,24.0,53,-99.99,,,-99.99,,2013-03-25 22:03:00,
2013-03-25 17:12:00,37.0,21.0,30.28,North,351,11.0,24.0,53,-99.99,,,-99.99,,2013-03-25 22:12:00,
2013-03-25 17:23:00,37.0,21.0,30.28,NNW,333,9.0,14.0,53,-99.99,,,-99.99,,2013-03-25 22:23:00,
2013-03-25 17:33:00,37.0,22.0,30.28,NNW,341,7.0,15.0,54,-99.99,,,-99.99,,2013-03-25 22:33:00,
2013-03-25 17:42:00,37.0,22.0,30.28,NNW,341,7.0,15.0,54,-99.99,,,-99.99,,2013-03-25 22:42:00,
2013-03-25 17:52:00,37.0,22.0,30.29,NNW,333,6.0,13.0,55,-99.99,,,-99.99,,2013-03-25 22:52:00,
2013-03-25 18:03:00,36.0,21.0,30.30,North,352,7.0,18.0,54,-99.99,,,-99.99,,2013-03-25 23:03:00,
2013-03-25 18:12:00,36.0,21.0,30.30,North,352,7.0,18.0,54,-99.99,,,-99.99,,2013-03-25 23:12:00,
2013-03-25 18:23:00,36.0,21.0,30.30,NNW,330,5.0,13.0,55,-99.99,,,-99.99,,2013-03-25 23:23:00,
2013-03-25 18:32:00,36.0,21.0,30.30,NW,322,6.0,13.0,53,-99.99,,,-99.99,,2013-03-25 23:32:00,
2013-03-25 18:42:00,36.0,21.0,30.30,NW,322,6.0,13.0,53,-99.99,,,-99.99,,2013-03-25 23:42:00,
2013-03-25 18:52:00,36.0,21.0,30.30,NNW,335,4.0,9.0,54,-99.99,,,-99.99,,2013-03-25 23:52:00,
2013-03-25 19:02:00,36.0,21.0,30.31,NNW,337,3.0,7.0,55,-99.99,,,-99.99,,2013-03-26 00:02:00,
2013-03-25 19:12:00,36.0,21.0,30.31,NNW,337,3.0,7.0,55,-99.99,,,-99.99,,2013-03-26 00:12:00,
2013-03-25 19:22:00,40.0,23.0,30.31,NNW,337,2.0,7.0,51,-99.99,,,-99.99,,2013-03-26 00:22:00,
2013-03-25 19:32:00,39.0,22.0,30.31,NNW,337,2.0,5.0,51,-99.99,,,-99.99,,2013-03-26 00:32:00,
2013-03-25 19:42:00,39.0,22.0,30.31,NNW,337,2.0,5.0,51,-99.99,,,-99.99,,2013-03-26 00:42:00,
2013-03-25 19:52:00,36.0,21.0,30.32,NNW,337,0.0,2.0,53,-99.99,,,-99.99,,2013-03-26 00:52:00,
2013-03-25 20:02:00,34.0,20.0,30.32,NNW,337,0.0,0.0,55,-99.99,,,-99.99,,2013-03-26 01:02:00,
2013-03-25 20:12:00,34.0,20.0,30.32,NNW,337,0.0,0.0,55,-99.99,,,-99.99,,2013-03-26 01:12:00,
2013-03-25 20:22:00,34.0,20.0,30.33,NNW,337,0.0,0.0,56,-99.99,,,-99.99,,2013-03-26 01:22:00,
2013-03-25 20:32:00,34.0,20.0,30.33,North,0,0.0,2.0,57,-99.99,,,-99.99,,2013-03-26 01:32:00,
2013-03-25 20:42:00,34.0,20.0,30.33,North,0,0.0,2.0,57,-99.99,,,-99.99,,2013-03-26 01:42:00,
2013-03-25 20:52:00,33.0,20.0,30.33,North,0,2.0,3.0,59,-99.99,,,-99.99,,2013-03-26 01:52:00,
2013-03-25 21:02:00,33.0,20.0,30.33,NNW,342,3.0,5.0,59,-99.99,,,-99.99,,2013-03-26 02:02:00,
2013-03-25 21:12:00,33.0,20.0,30.33,NNW,342,3.0,5.0,59,-99.99,,,-99.99,,2013-03-26 02:12:00,
2013-03-25 21:22:00,34.0,20.0,30.34,North,351,5.0,9.0,57,-99.99,,,-99.99,,2013-03-26 02:22:00,
2013-03-25 21:32:00,34.0,20.0,30.35,North,0,5.0,9.0,57,-99.99,,,-99.99,,2013-03-26 02:32:00,
2013-03-25 21:42:00,34.0,20.0,30.35,North,0,5.0,9.0,57,-99.99,,,-99.99,,2013-03-26 02:42:00,
2013-03-25 21:52:00,34.0,20.0,30.35,North,1,4.0,8.0,56,-99.99,,,-99.99,,2013-03-26 02:52:00,
2013-03-25 22:02:00,33.0,19.0,30.36,North,4,5.0,9.0,55,-99.99,,,-99.99,,2013-03-26 03:02:00,
2013-03-25 22:12:00,33.0,19.0,30.36,North,4,5.0,9.0,55,-99.99,,,-99.99,,2013-03-26 03:12:00,
2013-03-25 22:22:00,33.0,19.0,30.36,NNW,327,7.0,10.0,56,-99.99,,,-99.99,,2013-03-26 03:22:00,
2013-03-25 22:33:00,32.0,19.0,30.36,NNW,329,5.0,9.0,58,-99.99,,,-99.99,,2013-03-26 03:33:00,
2013-03-25 22:42:00,32.0,19.0,30.36,NNW,329,5.0,9.0,58,-99.99,,,-99.99,,2013-03-26 03:42:00,
2013-03-25 22:52:00,31.0,18.0,30.36,NNW,341,6.0,12.0,59,-99.99,,,-99.99,,2013-03-26 03:52:00,
2013-03-25 23:03:00,32.0,19.0,30.37,North,355,5.0,10.0,59,-99.99,,,-99.99,,2013-03-26 04:03:00,
2013-03-25 23:12:00,32.0,19.0,30.37,North,355,5.0,10.0,59,-99.99,,,-99.99,,2013-03-26 04:12:00,
2013-03-25 23:23:00,31.0,19.0,30.37,North,356,4.0,9.0,60,-99.99,,,-99.99,,2013-03-26 04:23:00,
2013-03-25 23:32:00,32.0,19.0,30.36,NNW,337,4.0,8.0,59,-99.99,,,-99.99,,2013-03-26 04:32:00,
2013-03-25 23:43:00,32.0,19.0,30.36,NNW,337,4.0,8.0,59,-99.99,,,-99.99,,2013-03-26 04:43:00,
2013-03-25 23:52:00,30.0,18.0,30.37,North,355,3.0,9.0,61,-99.99,,,-99.99,,2013-03-26 04:52:00,